Willsboro, New York
Current Conditions -  °F | °C
As of 12:54 PM on Monday 24 Nov 2014 (Local Time) from KBTV Reporting Station
Scattered Clouds Scattered Clouds  
Wind Chill: 65°   Ceiling: Unl
Heat Index: 65°   Visibility: 10mi
Dew Point: 56°   Wind: 20mph
Humidity: 73%   Direction: 180°S
Pressure: 29.41"   Gusts: 30mph
Location:  44.36°N, 73.39°W
Report Text: KBTV 241754Z 18017G26KT 10SM FEW017 SCT047 18/13 A2941 RMK AO2 PK WND 19030/1656 SLP960 60014 T01830133 10183 20089 58034
Loading
Personal Weather Stations






























Interactive Weather Map New forecast layout! Learn more

10-Day Weather Forecast

Advertisements
Track Severe Weather on mobile